sensor_id;sensor_type;location;lat;lon;timestamp;temperature;humidity
12452;DHT22;6291;48.924;12.204;2022-10-22T00:04:53;11.30;99.90
12452;DHT22;6291;48.924;12.204;2022-10-22T00:09:58;11.30;99.90
12452;DHT22;6291;48.924;12.204;2022-10-22T00:15:02;11.40;99.90
12452;DHT22;6291;48.924;12.204;2022-10-22T00:20:08;11.40;99.90
12452;DHT22;6291;48.924;12.204;2022-10-22T00:25:11;11.40;99.90
12452;DHT22;6291;48.924;12.204;2022-10-22T00:30:15;11.60;99.90
12452;DHT22;6291;48.924;12.204;2022-10-22T00:35:20;11.60;99.90
12452;DHT22;6291;48.924;12.204;2022-10-22T00:40:23;11.40;99.90
12452;DHT22;6291;48.924;12.204;2022-10-22T00:45:26;11.50;99.90
12452;DHT22;6291;48.924;12.204;2022-10-22T00:50:33;11.60;99.90
12452;DHT22;6291;48.924;12.204;2022-10-22T00:55:38;11.40;99.90
12452;DHT22;6291;48.924;12.204;2022-10-22T01:00:42;11.50;99.90
12452;DHT22;6291;48.924;12.204;2022-10-22T01:05:51;11.40;99.90
12452;DHT22;6291;48.924;12.204;2022-10-22T01:11:05;11.40;99.90
12452;DHT22;6291;48.924;12.204;2022-10-22T01:16:11;11.30;99.90
12452;DHT22;6291;48.924;12.204;2022-10-22T01:21:26;11.20;99.90
12452;DHT22;6291;48.924;12.204;2022-10-22T01:26:41;11.20;99.90
12452;DHT22;6291;48.924;12.204;2022-10-22T01:31:52;11.30;99.90
12452;DHT22;6291;48.924;12.204;2022-10-22T01:36:57;11.20;99.90
12452;DHT22;6291;48.924;12.204;2022-10-22T01:42:01;11.20;99.90
12452;DHT22;6291;48.924;12.204;2022-10-22T01:47:15;11.20;99.90
12452;DHT22;6291;48.924;12.204;2022-10-22T01:52:26;11.20;99.90
12452;DHT22;6291;48.924;12.204;2022-10-22T01:57:38;11.10;99.90
12452;DHT22;6291;48.924;12.204;2022-10-22T02:02:51;11.10;99.90
12452;DHT22;6291;48.924;12.204;2022-10-22T02:08:02;11.20;99.90
12452;DHT22;6291;48.924;12.204;2022-10-22T02:13:11;11.20;99.90
12452;DHT22;6291;48.924;12.204;2022-10-22T02:18:17;11.20;99.90
12452;DHT22;6291;48.924;12.204;2022-10-22T02:23:21;11.20;99.90
12452;DHT22;6291;48.924;12.204;2022-10-22T02:28:31;11.00;99.90
12452;DHT22;6291;48.924;12.204;2022-10-22T02:38:59;11.20;99.90
12452;DHT22;6291;48.924;12.204;2022-10-22T02:44:07;11.20;99.90
12452;DHT22;6291;48.924;12.204;2022-10-22T02:49:12;11.10;99.90
12452;DHT22;6291;48.924;12.204;2022-10-22T02:54:16;11.10;99.90
12452;DHT22;6291;48.924;12.204;2022-10-22T02:59:19;11.10;99.90
12452;DHT22;6291;48.924;12.204;2022-10-22T03:04:24;11.20;99.90
12452;DHT22;6291;48.924;12.204;2022-10-22T03:09:28;11.40;99.90
12452;DHT22;6291;48.924;12.204;2022-10-22T03:14:31;11.40;99.90
12452;DHT22;6291;48.924;12.204;2022-10-22T03:19:36;11.40;99.90
12452;DHT22;6291;48.924;12.204;2022-10-22T03:24:42;11.30;99.90
12452;DHT22;6291;48.924;12.204;2022-10-22T03:29:49;11.30;99.90
12452;DHT22;6291;48.924;12.204;2022-10-22T03:34:54;11.50;99.90
12452;DHT22;6291;48.924;12.204;2022-10-22T03:39:58;11.60;99.90
12452;DHT22;6291;48.924;12.204;2022-10-22T03:45:02;11.50;99.90
12452;DHT22;6291;48.924;12.204;2022-10-22T03:50:08;11.50;99.90
12452;DHT22;6291;48.924;12.204;2022-10-22T03:55:11;11.50;99.90
12452;DHT22;6291;48.924;12.204;2022-10-22T04:00:15;11.30;99.90
12452;DHT22;6291;48.924;12.204;2022-10-22T04:05:20;11.20;99.90
12452;DHT22;6291;48.924;12.204;2022-10-22T04:10:23;11.20;99.90
12452;DHT22;6291;48.924;12.204;2022-10-22T04:15:26;11.40;99.90
12452;DHT22;6291;48.924;12.204;2022-10-22T04:20:31;11.40;99.90
12452;DHT22;6291;48.924;12.204;2022-10-22T04:25:34;11.40;99.90
12452;DHT22;6291;48.924;12.204;2022-10-22T04:30:38;11.60;99.90
12452;DHT22;6291;48.924;12.204;2022-10-22T04:35:43;11.70;99.90
12452;DHT22;6291;48.924;12.204;2022-10-22T04:40:46;11.60;99.90
12452;DHT22;6291;48.924;12.204;2022-10-22T04:45:49;11.60;99.90
12452;DHT22;6291;48.924;12.204;2022-10-22T04:50:55;11.60;99.90
12452;DHT22;6291;48.924;12.204;2022-10-22T04:56:07;11.70;99.90
12452;DHT22;6291;48.924;12.204;2022-10-22T05:01:11;11.60;99.90
12452;DHT22;6291;48.924;12.204;2022-10-22T05:06:17;11.50;99.90
12452;DHT22;6291;48.924;12.204;2022-10-22T05:11:23;11.00;99.90
12452;DHT22;6291;48.924;12.204;2022-10-22T05:16:29;11.40;99.90
12452;DHT22;6291;48.924;12.204;2022-10-22T05:21:34;11.40;99.90
12452;DHT22;6291;48.924;12.204;2022-10-22T05:26:39;11.40;99.90
12452;DHT22;6291;48.924;12.204;2022-10-22T05:31:42;11.50;99.90
12452;DHT22;6291;48.924;12.204;2022-10-22T05:36:47;11.40;99.90
12452;DHT22;6291;48.924;12.204;2022-10-22T05:41:51;11.40;99.90
12452;DHT22;6291;48.924;12.204;2022-10-22T05:46:54;11.50;99.90
12452;DHT22;6291;48.924;12.204;2022-10-22T05:51:59;11.60;99.90
12452;DHT22;6291;48.924;12.204;2022-10-22T05:57:03;11.60;99.90
12452;DHT22;6291;48.924;12.204;2022-10-22T06:02:08;11.70;99.90
12452;DHT22;6291;48.924;12.204;2022-10-22T06:07:13;11.80;99.90
12452;DHT22;6291;48.924;12.204;2022-10-22T06:12:17;11.90;99.90
12452;DHT22;6291;48.924;12.204;2022-10-22T06:17:21;12.00;99.90
12452;DHT22;6291;48.924;12.204;2022-10-22T06:22:25;12.10;99.90
12452;DHT22;6291;48.924;12.204;2022-10-22T06:27:29;12.30;99.90
12452;DHT22;6291;48.924;12.204;2022-10-22T06:32:32;12.20;99.90
12452;DHT22;6291;48.924;12.204;2022-10-22T06:37:37;12.10;99.90
12452;DHT22;6291;48.924;12.204;2022-10-22T06:42:41;12.10;99.90
12452;DHT22;6291;48.924;12.204;2022-10-22T06:47:44;12.50;99.90
12452;DHT22;6291;48.924;12.204;2022-10-22T06:52:50;12.00;99.90
12452;DHT22;6291;48.924;12.204;2022-10-22T06:57:54;12.00;99.90
12452;DHT22;6291;48.924;12.204;2022-10-22T07:02:57;11.80;99.90
12452;DHT22;6291;48.924;12.204;2022-10-22T07:08:02;16.10;99.90
12452;DHT22;6291;48.924;12.204;2022-10-22T07:13:05;12.40;99.90
12452;DHT22;6291;48.924;12.204;2022-10-22T07:18:09;12.50;99.90
12452;DHT22;6291;48.924;12.204;2022-10-22T07:23:13;12.60;99.90
12452;DHT22;6291;48.924;12.204;2022-10-22T07:28:17;12.60;99.90
12452;DHT22;6291;48.924;12.204;2022-10-22T07:33:21;12.60;99.90
12452;DHT22;6291;48.924;12.204;2022-10-22T07:38:26;12.60;99.90
12452;DHT22;6291;48.924;12.204;2022-10-22T07:43:29;12.70;99.90
12452;DHT22;6291;48.924;12.204;2022-10-22T07:48:33;12.80;99.90
12452;DHT22;6291;48.924;12.204;2022-10-22T07:53:37;12.90;99.90
12452;DHT22;6291;48.924;12.204;2022-10-22T07:58:41;12.90;99.90
12452;DHT22;6291;48.924;12.204;2022-10-22T08:03:44;12.90;99.90
12452;DHT22;6291;48.924;12.204;2022-10-22T08:08:49;12.90;99.90
12452;DHT22;6291;48.924;12.204;2022-10-22T08:13:52;13.10;99.90
12452;DHT22;6291;48.924;12.204;2022-10-22T08:18:56;13.30;99.90
12452;DHT22;6291;48.924;12.204;2022-10-22T08:24:00;13.30;99.90
12452;DHT22;6291;48.924;12.204;2022-10-22T08:29:04;13.40;99.90
12452;DHT22;6291;48.924;12.204;2022-10-22T08:34:07;13.20;99.90
12452;DHT22;6291;48.924;12.204;2022-10-22T08:39:12;13.80;99.90
12452;DHT22;6291;48.924;12.204;2022-10-22T08:44:40;14.10;99.90
12452;DHT22;6291;48.924;12.204;2022-10-22T08:49:45;14.30;99.90
12452;DHT22;6291;48.924;12.204;2022-10-22T08:54:52;14.00;99.90
12452;DHT22;6291;48.924;12.204;2022-10-22T09:00:03;13.80;99.90
12452;DHT22;6291;48.924;12.204;2022-10-22T09:05:25;13.60;99.90
12452;DHT22;6291;48.924;12.204;2022-10-22T09:10:37;13.70;99.90
12452;DHT22;6291;48.924;12.204;2022-10-22T09:15:42;13.90;99.90
12452;DHT22;6291;48.924;12.204;2022-10-22T09:20:49;13.90;99.90
12452;DHT22;6291;48.924;12.204;2022-10-22T09:25:58;13.80;99.90
12452;DHT22;6291;48.924;12.204;2022-10-22T09:31:09;13.80;99.90
12452;DHT22;6291;48.924;12.204;2022-10-22T09:36:15;13.70;99.90
12452;DHT22;6291;48.924;12.204;2022-10-22T09:41:26;13.60;99.90
12452;DHT22;6291;48.924;12.204;2022-10-22T09:46:37;13.70;99.90
12452;DHT22;6291;48.924;12.204;2022-10-22T09:51:49;13.70;99.90
12452;DHT22;6291;48.924;12.204;2022-10-22T09:56:56;13.90;99.90
12452;DHT22;6291;48.924;12.204;2022-10-22T10:02:05;14.10;99.90
12452;DHT22;6291;48.924;12.204;2022-10-22T10:07:22;14.10;99.90
12452;DHT22;6291;48.924;12.204;2022-10-22T10:12:36;14.30;99.90
12452;DHT22;6291;48.924;12.204;2022-10-22T10:17:49;14.10;99.90
12452;DHT22;6291;48.924;12.204;2022-10-22T10:23:02;14.10;99.90
12452;DHT22;6291;48.924;12.204;2022-10-22T10:28:20;14.20;99.90
12452;DHT22;6291;48.924;12.204;2022-10-22T10:33:34;14.20;99.90
12452;DHT22;6291;48.924;12.204;2022-10-22T10:38:47;14.20;99.90
12452;DHT22;6291;48.924;12.204;2022-10-22T10:44:07;14.60;99.90
12452;DHT22;6291;48.924;12.204;2022-10-22T10:49:18;14.50;99.90
12452;DHT22;6291;48.924;12.204;2022-10-22T10:54:39;14.50;99.90
12452;DHT22;6291;48.924;12.204;2022-10-22T10:59:59;14.60;99.90
12452;DHT22;6291;48.924;12.204;2022-10-22T11:05:15;14.90;99.90
12452;DHT22;6291;48.924;12.204;2022-10-22T11:10:27;14.90;99.90
12452;DHT22;6291;48.924;12.204;2022-10-22T11:15:34;14.80;99.90
12452;DHT22;6291;48.924;12.204;2022-10-22T11:20:46;14.90;99.90
12452;DHT22;6291;48.924;12.204;2022-10-22T11:25:52;15.50;99.90
12452;DHT22;6291;48.924;12.204;2022-10-22T11:31:00;16.30;99.90
12452;DHT22;6291;48.924;12.204;2022-10-22T11:36:06;18.40;99.90
12452;DHT22;6291;48.924;12.204;2022-10-22T11:41:12;18.90;99.90
12452;DHT22;6291;48.924;12.204;2022-10-22T11:46:38;20.10;99.90
12452;DHT22;6291;48.924;12.204;2022-10-22T11:51:43;20.20;99.90
12452;DHT22;6291;48.924;12.204;2022-10-22T11:56:51;20.80;99.90
12452;DHT22;6291;48.924;12.204;2022-10-22T12:01:56;19.40;99.90
12452;DHT22;6291;48.924;12.204;2022-10-22T12:07:00;18.50;99.90
12452;DHT22;6291;48.924;12.204;2022-10-22T12:12:12;19.30;99.90
12452;DHT22;6291;48.924;12.204;2022-10-22T12:17:19;18.40;99.90
12452;DHT22;6291;48.924;12.204;2022-10-22T12:22:26;18.40;99.90
12452;DHT22;6291;48.924;12.204;2022-10-22T12:27:35;19.50;99.90
12452;DHT22;6291;48.924;12.204;2022-10-22T12:32:40;20.40;99.90
12452;DHT22;6291;48.924;12.204;2022-10-22T12:37:43;19.20;99.90
12452;DHT22;6291;48.924;12.204;2022-10-22T12:42:51;20.20;99.90
12452;DHT22;6291;48.924;12.204;2022-10-22T12:47:57;20.50;99.90
12452;DHT22;6291;48.924;12.204;2022-10-22T12:53:01;19.10;99.90
12452;DHT22;6291;48.924;12.204;2022-10-22T12:58:05;18.60;99.90
12452;DHT22;6291;48.924;12.204;2022-10-22T13:03:23;18.20;99.90
12452;DHT22;6291;48.924;12.204;2022-10-22T13:08:27;17.70;99.90
12452;DHT22;6291;48.924;12.204;2022-10-22T13:13:32;19.30;99.90
12452;DHT22;6291;48.924;12.204;2022-10-22T13:18:37;20.10;99.90
12452;DHT22;6291;48.924;12.204;2022-10-22T13:23:52;19.30;99.90
12452;DHT22;6291;48.924;12.204;2022-10-22T13:28:57;19.10;99.90
12452;DHT22;6291;48.924;12.204;2022-10-22T13:34:05;20.20;99.90
12452;DHT22;6291;48.924;12.204;2022-10-22T13:39:16;20.60;99.90
12452;DHT22;6291;48.924;12.204;2022-10-22T13:44:20;19.70;99.90
12452;DHT22;6291;48.924;12.204;2022-10-22T13:49:24;20.10;99.90
12452;DHT22;6291;48.924;12.204;2022-10-22T13:54:28;20.70;99.90
12452;DHT22;6291;48.924;12.204;2022-10-22T13:59:31;19.50;99.90
12452;DHT22;6291;48.924;12.204;2022-10-22T14:04:38;19.60;99.90
12452;DHT22;6291;48.924;12.204;2022-10-22T14:09:42;22.10;99.50
12452;DHT22;6291;48.924;12.204;2022-10-22T14:14:45;23.40;94.10
12452;DHT22;6291;48.924;12.204;2022-10-22T14:19:50;22.20;94.30
12452;DHT22;6291;48.924;12.204;2022-10-22T14:24:53;23.30;99.90
12452;DHT22;6291;48.924;12.204;2022-10-22T14:29:57;17.70;99.90
12452;DHT22;6291;48.924;12.204;2022-10-22T14:35:02;19.70;99.90
12452;DHT22;6291;48.924;12.204;2022-10-22T14:40:06;21.70;99.90
12452;DHT22;6291;48.924;12.204;2022-10-22T14:45:15;23.20;92.10
12452;DHT22;6291;48.924;12.204;2022-10-22T14:50:20;21.10;92.90
12452;DHT22;6291;48.924;12.204;2022-10-22T14:55:23;20.00;95.60
12452;DHT22;6291;48.924;12.204;2022-10-22T15:00:28;20.30;97.50
12452;DHT22;6291;48.924;12.204;2022-10-22T15:05:32;20.40;95.90
12452;DHT22;6291;48.924;12.204;2022-10-22T15:10:37;19.00;99.30
12452;DHT22;6291;48.924;12.204;2022-10-22T15:15:41;19.60;99.10
12452;DHT22;6291;48.924;12.204;2022-10-22T15:20:54;19.10;99.90
12452;DHT22;6291;48.924;12.204;2022-10-22T15:25:57;18.70;99.90
12452;DHT22;6291;48.924;12.204;2022-10-22T15:31:00;19.50;99.90
12452;DHT22;6291;48.924;12.204;2022-10-22T15:36:11;17.60;99.90
12452;DHT22;6291;48.924;12.204;2022-10-22T15:41:14;17.10;99.90
12452;DHT22;6291;48.924;12.204;2022-10-22T15:46:18;16.60;99.90
12452;DHT22;6291;48.924;12.204;2022-10-22T15:51:24;16.50;99.90
12452;DHT22;6291;48.924;12.204;2022-10-22T15:56:30;16.20;99.90
12452;DHT22;6291;48.924;12.204;2022-10-22T16:01:34;16.00;99.90
12452;DHT22;6291;48.924;12.204;2022-10-22T16:06:40;15.80;99.90
12452;DHT22;6291;48.924;12.204;2022-10-22T16:11:44;15.60;99.90
12452;DHT22;6291;48.924;12.204;2022-10-22T16:16:50;15.40;99.90
12452;DHT22;6291;48.924;12.204;2022-10-22T16:21:56;15.30;99.90
12452;DHT22;6291;48.924;12.204;2022-10-22T16:27:00;15.20;99.90
12452;DHT22;6291;48.924;12.204;2022-10-22T16:32:05;15.10;99.90
12452;DHT22;6291;48.924;12.204;2022-10-22T16:37:10;15.00;99.90
12452;DHT22;6291;48.924;12.204;2022-10-22T16:42:14;17.40;99.90
12452;DHT22;6291;48.924;12.204;2022-10-22T16:47:17;14.80;99.90
12452;DHT22;6291;48.924;12.204;2022-10-22T16:52:22;14.60;99.90
12452;DHT22;6291;48.924;12.204;2022-10-22T16:57:25;14.50;99.90
12452;DHT22;6291;48.924;12.204;2022-10-22T17:02:29;14.40;99.90
12452;DHT22;6291;48.924;12.204;2022-10-22T17:07:34;14.20;99.90
12452;DHT22;6291;48.924;12.204;2022-10-22T17:12:37;13.90;99.90
12452;DHT22;6291;48.924;12.204;2022-10-22T17:17:41;13.80;99.90
12452;DHT22;6291;48.924;12.204;2022-10-22T17:22:50;13.70;99.90
12452;DHT22;6291;48.924;12.204;2022-10-22T17:27:53;13.60;99.90
12452;DHT22;6291;48.924;12.204;2022-10-22T17:32:57;13.60;99.90
12452;DHT22;6291;48.924;12.204;2022-10-22T17:38:01;13.50;99.90
12452;DHT22;6291;48.924;12.204;2022-10-22T17:43:05;13.50;99.90
12452;DHT22;6291;48.924;12.204;2022-10-22T17:48:08;13.60;99.90
12452;DHT22;6291;48.924;12.204;2022-10-22T17:53:13;13.60;99.90
12452;DHT22;6291;48.924;12.204;2022-10-22T17:58:16;13.60;99.90
12452;DHT22;6291;48.924;12.204;2022-10-22T18:03:19;13.60;99.90
12452;DHT22;6291;48.924;12.204;2022-10-22T18:08:25;13.60;99.90
12452;DHT22;6291;48.924;12.204;2022-10-22T18:13:28;13.50;99.90
12452;DHT22;6291;48.924;12.204;2022-10-22T18:18:33;13.30;99.90
12452;DHT22;6291;48.924;12.204;2022-10-22T18:23:38;13.10;99.90
12452;DHT22;6291;48.924;12.204;2022-10-22T18:28:41;12.70;99.90
12452;DHT22;6291;48.924;12.204;2022-10-22T18:33:45;12.90;99.90
12452;DHT22;6291;48.924;12.204;2022-10-22T18:38:51;12.80;99.90
12452;DHT22;6291;48.924;12.204;2022-10-22T18:43:56;12.80;99.90
12452;DHT22;6291;48.924;12.204;2022-10-22T18:49:00;13.00;99.90
12452;DHT22;6291;48.924;12.204;2022-10-22T18:54:05;13.10;99.90
12452;DHT22;6291;48.924;12.204;2022-10-22T18:59:25;12.70;99.90
12452;DHT22;6291;48.924;12.204;2022-10-22T19:04:29;12.40;99.90
12452;DHT22;6291;48.924;12.204;2022-10-22T19:09:39;12.20;99.90
12452;DHT22;6291;48.924;12.204;2022-10-22T19:14:42;12.10;99.90
12452;DHT22;6291;48.924;12.204;2022-10-22T19:19:46;12.00;99.90
12452;DHT22;6291;48.924;12.204;2022-10-22T19:24:51;11.90;99.90
12452;DHT22;6291;48.924;12.204;2022-10-22T19:29:54;11.70;99.90
12452;DHT22;6291;48.924;12.204;2022-10-22T19:34:58;11.50;99.90
12452;DHT22;6291;48.924;12.204;2022-10-22T19:40:04;11.70;99.90
12452;DHT22;6291;48.924;12.204;2022-10-22T19:45:09;11.70;99.90
12452;DHT22;6291;48.924;12.204;2022-10-22T19:50:12;11.60;99.90
12452;DHT22;6291;48.924;12.204;2022-10-22T19:55:17;11.60;99.90
12452;DHT22;6291;48.924;12.204;2022-10-22T20:00:20;11.60;99.90
12452;DHT22;6291;48.924;12.204;2022-10-22T20:05:24;11.70;99.90
12452;DHT22;6291;48.924;12.204;2022-10-22T20:10:28;11.70;99.90
12452;DHT22;6291;48.924;12.204;2022-10-22T20:15:33;11.70;99.90
12452;DHT22;6291;48.924;12.204;2022-10-22T20:20:37;11.70;99.90
12452;DHT22;6291;48.924;12.204;2022-10-22T20:25:43;11.70;99.90
12452;DHT22;6291;48.924;12.204;2022-10-22T20:30:47;11.70;99.90
12452;DHT22;6291;48.924;12.204;2022-10-22T20:35:59;13.40;99.90
12452;DHT22;6291;48.924;12.204;2022-10-22T20:41:06;11.60;99.90
12452;DHT22;6291;48.924;12.204;2022-10-22T20:46:13;11.60;99.90
12452;DHT22;6291;48.924;12.204;2022-10-22T20:51:18;11.50;99.90
12452;DHT22;6291;48.924;12.204;2022-10-22T20:56:23;11.40;99.90
12452;DHT22;6291;48.924;12.204;2022-10-22T21:01:26;11.20;99.90
12452;DHT22;6291;48.924;12.204;2022-10-22T21:06:30;11.20;99.90
12452;DHT22;6291;48.924;12.204;2022-10-22T21:11:36;11.30;99.90
12452;DHT22;6291;48.924;12.204;2022-10-22T21:16:40;11.20;99.90
12452;DHT22;6291;48.924;12.204;2022-10-22T21:21:43;11.10;99.90
12452;DHT22;6291;48.924;12.204;2022-10-22T21:26:48;11.10;99.90
12452;DHT22;6291;48.924;12.204;2022-10-22T21:31:52;11.00;99.90
12452;DHT22;6291;48.924;12.204;2022-10-22T21:36:55;11.00;99.90
12452;DHT22;6291;48.924;12.204;2022-10-22T21:42:00;11.00;99.90
12452;DHT22;6291;48.924;12.204;2022-10-22T21:47:03;11.00;99.90
12452;DHT22;6291;48.924;12.204;2022-10-22T21:52:06;10.80;99.90
12452;DHT22;6291;48.924;12.204;2022-10-22T21:57:11;10.80;99.90
12452;DHT22;6291;48.924;12.204;2022-10-22T22:02:14;10.90;99.90
12452;DHT22;6291;48.924;12.204;2022-10-22T22:07:18;11.00;99.90
12452;DHT22;6291;48.924;12.204;2022-10-22T22:12:22;11.10;99.90
12452;DHT22;6291;48.924;12.204;2022-10-22T22:17:25;11.20;99.90
12452;DHT22;6291;48.924;12.204;2022-10-22T22:22:29;11.20;99.90
12452;DHT22;6291;48.924;12.204;2022-10-22T22:27:33;11.20;99.90
12452;DHT22;6291;48.924;12.204;2022-10-22T22:32:37;11.10;99.90
12452;DHT22;6291;48.924;12.204;2022-10-22T22:37:40;11.10;99.90
12452;DHT22;6291;48.924;12.204;2022-10-22T22:42:45;11.00;99.90
12452;DHT22;6291;48.924;12.204;2022-10-22T22:47:49;10.90;99.90
12452;DHT22;6291;48.924;12.204;2022-10-22T22:52:52;10.90;99.90
12452;DHT22;6291;48.924;12.204;2022-10-22T22:57:57;10.80;99.90
12452;DHT22;6291;48.924;12.204;2022-10-22T23:03:00;10.80;99.90
12452;DHT22;6291;48.924;12.204;2022-10-22T23:08:04;10.70;99.90
12452;DHT22;6291;48.924;12.204;2022-10-22T23:13:08;10.60;99.90
12452;DHT22;6291;48.924;12.204;2022-10-22T23:18:11;10.60;99.90
12452;DHT22;6291;48.924;12.204;2022-10-22T23:23:15;10.60;99.90
12452;DHT22;6291;48.924;12.204;2022-10-22T23:28:21;10.60;99.90
12452;DHT22;6291;48.924;12.204;2022-10-22T23:38:28;10.60;99.90
12452;DHT22;6291;48.924;12.204;2022-10-22T23:43:33;10.60;99.90
12452;DHT22;6291;48.924;12.204;2022-10-22T23:48:39;10.50;99.90
12452;DHT22;6291;48.924;12.204;2022-10-22T23:53:43;10.40;99.90
12452;DHT22;6291;48.924;12.204;2022-10-22T23:58:50;10.40;99.90
